sensor_id;sensor_type;location;lat;lon;timestamp;pressure;altitude;pressure_sealevel;temperature;humidity
67803;BME280;72185;51.378;-1.342;2023-09-19T00:00:50;99470.90;;;20.81;41.02
67803;BME280;72185;51.378;-1.342;2023-09-19T00:03:16;99463.55;;;20.80;40.19
67803;BME280;72185;51.378;-1.342;2023-09-19T00:05:41;99459.33;;;20.53;41.01
67803;BME280;72185;51.378;-1.342;2023-09-19T00:08:06;99461.38;;;21.02;39.86
67803;BME280;72185;51.378;-1.342;2023-09-19T00:10:33;99459.47;;;20.98;40.64
67803;BME280;72185;51.378;-1.342;2023-09-19T00:12:58;99462.67;;;20.38;40.75
67803;BME280;72185;51.378;-1.342;2023-09-19T00:15:23;99463.44;;;21.07;40.48
67803;BME280;72185;51.378;-1.342;2023-09-19T00:17:48;99471.83;;;20.57;41.06
67803;BME280;72185;51.378;-1.342;2023-09-19T00:20:13;99474.07;;;20.68;40.88
67803;BME280;72185;51.378;-1.342;2023-09-19T00:22:40;99470.48;;;20.55;40.65
67803;BME280;72185;51.378;-1.342;2023-09-19T00:25:09;99471.43;;;20.64;40.32
67803;BME280;72185;51.378;-1.342;2023-09-19T00:27:29;99472.85;;;21.03;40.15
67803;BME280;72185;51.378;-1.342;2023-09-19T00:29:55;99473.46;;;21.11;40.07
67803;BME280;72185;51.378;-1.342;2023-09-19T00:32:20;99479.77;;;20.93;40.23
67803;BME280;72185;51.378;-1.342;2023-09-19T00:34:46;99473.87;;;20.68;40.15
67803;BME280;72185;51.378;-1.342;2023-09-19T00:37:11;99474.36;;;20.93;39.79
67803;BME280;72185;51.378;-1.342;2023-09-19T00:39:36;99474.89;;;21.23;40.12
67803;BME280;72185;51.378;-1.342;2023-09-19T00:42:02;99472.90;;;21.02;40.06
67803;BME280;72185;51.378;-1.342;2023-09-19T00:44:27;99475.54;;;21.46;39.44
67803;BME280;72185;51.378;-1.342;2023-09-19T00:46:53;99480.51;;;21.01;40.11
67803;BME280;72185;51.378;-1.342;2023-09-19T00:49:18;99484.99;;;21.04;40.00
67803;BME280;72185;51.378;-1.342;2023-09-19T00:51:44;99478.74;;;21.15;39.60
67803;BME280;72185;51.378;-1.342;2023-09-19T00:54:09;99475.02;;;20.97;40.02
67803;BME280;72185;51.378;-1.342;2023-09-19T00:56:34;99479.52;;;20.64;40.48
67803;BME280;72185;51.378;-1.342;2023-09-19T00:59:00;99479.18;;;21.19;39.98
67803;BME280;72185;51.378;-1.342;2023-09-19T01:01:25;99471.86;;;20.87;40.28
67803;BME280;72185;51.378;-1.342;2023-09-19T01:03:51;99474.13;;;21.61;39.21
67803;BME280;72185;51.378;-1.342;2023-09-19T01:06:16;99472.59;;;21.02;39.73
67803;BME280;72185;51.378;-1.342;2023-09-19T01:08:41;99470.99;;;21.05;40.27
67803;BME280;72185;51.378;-1.342;2023-09-19T01:11:14;99469.77;;;20.84;40.13
67803;BME280;72185;51.378;-1.342;2023-09-19T01:13:41;99468.23;;;21.09;39.88
67803;BME280;72185;51.378;-1.342;2023-09-19T01:16:05;99462.13;;;21.03;39.38
67803;BME280;72185;51.378;-1.342;2023-09-19T01:18:30;99460.28;;;21.53;39.26
67803;BME280;72185;51.378;-1.342;2023-09-19T01:20:55;99453.60;;;21.48;39.56
67803;BME280;72185;51.378;-1.342;2023-09-19T01:23:20;99449.98;;;21.10;39.74
67803;BME280;72185;51.378;-1.342;2023-09-19T01:28:16;99461.26;;;21.27;39.60
67803;BME280;72185;51.378;-1.342;2023-09-19T01:30:34;99458.43;;;21.06;39.55
67803;BME280;72185;51.378;-1.342;2023-09-19T01:32:55;99457.09;;;21.29;39.24
67803;BME280;72185;51.378;-1.342;2023-09-19T01:35:21;99452.02;;;21.29;39.51
67803;BME280;72185;51.378;-1.342;2023-09-19T01:37:46;99452.26;;;21.44;39.48
67803;BME280;72185;51.378;-1.342;2023-09-19T01:40:13;99448.07;;;21.30;39.14
67803;BME280;72185;51.378;-1.342;2023-09-19T01:42:41;99449.37;;;21.03;39.92
67803;BME280;72185;51.378;-1.342;2023-09-19T01:45:08;99454.98;;;20.91;40.16
67803;BME280;72185;51.378;-1.342;2023-09-19T01:47:33;99459.06;;;20.88;39.79
67803;BME280;72185;51.378;-1.342;2023-09-19T01:49:59;99458.44;;;20.68;40.44
67803;BME280;72185;51.378;-1.342;2023-09-19T01:52:20;99461.25;;;21.32;39.50
67803;BME280;72185;51.378;-1.342;2023-09-19T01:54:50;99464.36;;;21.11;39.50
67803;BME280;72185;51.378;-1.342;2023-09-19T01:57:16;99464.66;;;20.80;39.89
67803;BME280;72185;51.378;-1.342;2023-09-19T01:59:41;99464.84;;;21.31;39.30
67803;BME280;72185;51.378;-1.342;2023-09-19T02:02:01;99465.74;;;21.66;39.19
67803;BME280;72185;51.378;-1.342;2023-09-19T02:04:26;99461.95;;;21.05;39.44
67803;BME280;72185;51.378;-1.342;2023-09-19T02:06:51;99463.26;;;21.08;39.47
67803;BME280;72185;51.378;-1.342;2023-09-19T02:09:17;99464.68;;;21.19;39.61
67803;BME280;72185;51.378;-1.342;2023-09-19T02:11:42;99465.29;;;20.84;39.78
67803;BME280;72185;51.378;-1.342;2023-09-19T02:14:08;99465.37;;;21.19;39.60
67803;BME280;72185;51.378;-1.342;2023-09-19T02:16:33;99465.02;;;21.38;38.84
67803;BME280;72185;51.378;-1.342;2023-09-19T02:18:58;99468.29;;;21.04;39.47
67803;BME280;72185;51.378;-1.342;2023-09-19T02:21:23;99464.66;;;21.32;39.28
67803;BME280;72185;51.378;-1.342;2023-09-19T02:23:49;99466.75;;;21.52;39.10
67803;BME280;72185;51.378;-1.342;2023-09-19T02:26:14;99466.88;;;20.86;39.72
67803;BME280;72185;51.378;-1.342;2023-09-19T02:28:40;99464.13;;;21.05;39.67
67803;BME280;72185;51.378;-1.342;2023-09-19T02:31:05;99463.73;;;21.31;39.35
67803;BME280;72185;51.378;-1.342;2023-09-19T02:33:31;99466.11;;;21.18;39.12
67803;BME280;72185;51.378;-1.342;2023-09-19T02:35:56;99464.86;;;21.29;39.47
67803;BME280;72185;51.378;-1.342;2023-09-19T02:38:21;99460.39;;;21.28;39.34
67803;BME280;72185;51.378;-1.342;2023-09-19T02:40:47;99458.67;;;21.44;39.15
67803;BME280;72185;51.378;-1.342;2023-09-19T02:43:12;99463.71;;;21.01;39.19
67803;BME280;72185;51.378;-1.342;2023-09-19T02:45:38;99465.52;;;20.97;39.34
67803;BME280;72185;51.378;-1.342;2023-09-19T02:48:04;99463.06;;;21.50;38.80
67803;BME280;72185;51.378;-1.342;2023-09-19T02:50:28;99462.20;;;20.99;39.44
67803;BME280;72185;51.378;-1.342;2023-09-19T02:52:54;99456.51;;;20.56;39.98
67803;BME280;72185;51.378;-1.342;2023-09-19T02:55:20;99459.29;;;21.21;39.17
67803;BME280;72185;51.378;-1.342;2023-09-19T02:57:46;99454.34;;;21.28;39.06
67803;BME280;72185;51.378;-1.342;2023-09-19T03:00:12;99454.33;;;21.17;38.95
67803;BME280;72185;51.378;-1.342;2023-09-19T03:02:36;99448.61;;;21.13;39.06
67803;BME280;72185;51.378;-1.342;2023-09-19T03:05:01;99450.36;;;21.12;38.98
67803;BME280;72185;51.378;-1.342;2023-09-19T03:07:26;99445.19;;;21.44;39.00
67803;BME280;72185;51.378;-1.342;2023-09-19T03:09:52;99445.01;;;21.21;39.15
67803;BME280;72185;51.378;-1.342;2023-09-19T03:12:17;99446.12;;;21.07;39.44
67803;BME280;72185;51.378;-1.342;2023-09-19T03:14:42;99440.43;;;21.02;38.87
67803;BME280;72185;51.378;-1.342;2023-09-19T03:17:08;99433.09;;;21.67;38.58
67803;BME280;72185;51.378;-1.342;2023-09-19T03:19:33;99433.66;;;21.74;38.44
67803;BME280;72185;51.378;-1.342;2023-09-19T03:21:59;99425.82;;;21.75;38.43
67803;BME280;72185;51.378;-1.342;2023-09-19T03:24:24;99416.69;;;21.11;38.72
67803;BME280;72185;51.378;-1.342;2023-09-19T03:26:50;99408.71;;;21.04;38.90
67803;BME280;72185;51.378;-1.342;2023-09-19T03:29:15;99406.22;;;21.01;39.03
67803;BME280;72185;51.378;-1.342;2023-09-19T03:31:40;99405.04;;;21.33;38.58
67803;BME280;72185;51.378;-1.342;2023-09-19T03:34:06;99406.18;;;21.72;38.26
67803;BME280;72185;51.378;-1.342;2023-09-19T03:36:31;99399.98;;;21.81;38.48
67803;BME280;72185;51.378;-1.342;2023-09-19T03:38:57;99394.71;;;21.34;38.74
67803;BME280;72185;51.378;-1.342;2023-09-19T03:41:22;99389.29;;;21.59;38.48
67803;BME280;72185;51.378;-1.342;2023-09-19T03:43:47;99380.12;;;21.06;39.24
67803;BME280;72185;51.378;-1.342;2023-09-19T03:46:13;99375.38;;;21.44;38.77
67803;BME280;72185;51.378;-1.342;2023-09-19T03:48:38;99370.40;;;21.02;38.79
67803;BME280;72185;51.378;-1.342;2023-09-19T03:51:04;99367.17;;;21.74;38.32
67803;BME280;72185;51.378;-1.342;2023-09-19T03:53:34;99353.32;;;21.22;38.92
67803;BME280;72185;51.378;-1.342;2023-09-19T03:55:54;99349.92;;;21.31;38.88
67803;BME280;72185;51.378;-1.342;2023-09-19T03:58:20;99352.36;;;21.50;38.56
67803;BME280;72185;51.378;-1.342;2023-09-19T04:00:45;99349.73;;;21.23;38.63
67803;BME280;72185;51.378;-1.342;2023-09-19T04:03:11;99335.02;;;21.30;38.41
67803;BME280;72185;51.378;-1.342;2023-09-19T04:08:02;99329.45;;;21.58;38.45
67803;BME280;72185;51.378;-1.342;2023-09-19T04:10:27;99333.80;;;21.40;38.60
67803;BME280;72185;51.378;-1.342;2023-09-19T04:12:53;99326.24;;;20.77;39.40
67803;BME280;72185;51.378;-1.342;2023-09-19T04:15:18;99327.16;;;21.35;38.81
67803;BME280;72185;51.378;-1.342;2023-09-19T04:17:43;99321.99;;;21.47;38.51
67803;BME280;72185;51.378;-1.342;2023-09-19T04:20:09;99313.19;;;21.66;38.24
67803;BME280;72185;51.378;-1.342;2023-09-19T04:22:34;99313.63;;;21.69;38.32
67803;BME280;72185;51.378;-1.342;2023-09-19T04:24:59;99316.46;;;21.19;38.94
67803;BME280;72185;51.378;-1.342;2023-09-19T04:27:25;99319.46;;;21.45;38.38
67803;BME280;72185;51.378;-1.342;2023-09-19T04:29:50;99322.28;;;21.47;38.29
67803;BME280;72185;51.378;-1.342;2023-09-19T04:32:16;99320.86;;;21.47;38.28
67803;BME280;72185;51.378;-1.342;2023-09-19T04:34:41;99330.51;;;21.36;38.65
67803;BME280;72185;51.378;-1.342;2023-09-19T04:37:07;99329.44;;;21.10;38.75
67803;BME280;72185;51.378;-1.342;2023-09-19T04:39:32;99332.22;;;20.98;39.14
67803;BME280;72185;51.378;-1.342;2023-09-19T04:41:57;99331.47;;;21.32;38.63
67803;BME280;72185;51.378;-1.342;2023-09-19T04:44:23;99336.72;;;21.38;38.59
67803;BME280;72185;51.378;-1.342;2023-09-19T04:46:49;99335.43;;;21.15;38.63
67803;BME280;72185;51.378;-1.342;2023-09-19T04:49:14;99332.19;;;21.64;38.22
67803;BME280;72185;51.378;-1.342;2023-09-19T04:51:39;99330.95;;;21.41;38.46
67803;BME280;72185;51.378;-1.342;2023-09-19T04:54:05;99332.40;;;21.26;38.20
67803;BME280;72185;51.378;-1.342;2023-09-19T04:56:30;99332.90;;;21.10;38.68
67803;BME280;72185;51.378;-1.342;2023-09-19T04:58:55;99327.86;;;21.36;38.57
67803;BME280;72185;51.378;-1.342;2023-09-19T05:01:21;99324.93;;;21.63;38.20
67803;BME280;72185;51.378;-1.342;2023-09-19T05:03:46;99320.15;;;21.38;38.48
67803;BME280;72185;51.378;-1.342;2023-09-19T05:06:12;99315.32;;;21.43;38.48
67803;BME280;72185;51.378;-1.342;2023-09-19T05:08:37;99310.42;;;21.22;38.58
67803;BME280;72185;51.378;-1.342;2023-09-19T05:11:03;99315.19;;;21.64;38.00
67803;BME280;72185;51.378;-1.342;2023-09-19T05:13:28;99311.22;;;21.66;37.98
67803;BME280;72185;51.378;-1.342;2023-09-19T05:15:53;99310.77;;;21.11;38.27
67803;BME280;72185;51.378;-1.342;2023-09-19T05:18:19;99309.61;;;21.28;38.36
67803;BME280;72185;51.378;-1.342;2023-09-19T05:20:44;99304.77;;;21.25;38.52
67803;BME280;72185;51.378;-1.342;2023-09-19T05:23:10;99309.63;;;21.31;38.58
67803;BME280;72185;51.378;-1.342;2023-09-19T05:25:36;99304.49;;;21.11;38.85
67803;BME280;72185;51.378;-1.342;2023-09-19T05:28:01;99298.38;;;21.27;38.67
67803;BME280;72185;51.378;-1.342;2023-09-19T05:30:26;99301.67;;;21.36;38.71
67803;BME280;72185;51.378;-1.342;2023-09-19T05:32:52;99296.49;;;20.85;39.22
67803;BME280;72185;51.378;-1.342;2023-09-19T05:35:17;99291.72;;;21.48;38.40
67803;BME280;72185;51.378;-1.342;2023-09-19T05:37:42;99287.34;;;21.58;38.25
67803;BME280;72185;51.378;-1.342;2023-09-19T05:40:09;99287.37;;;21.63;38.06
67803;BME280;72185;51.378;-1.342;2023-09-19T05:42:33;99285.58;;;21.89;37.74
67803;BME280;72185;51.378;-1.342;2023-09-19T05:44:58;99277.08;;;21.19;38.81
67803;BME280;72185;51.378;-1.342;2023-09-19T05:47:24;99282.37;;;21.01;38.88
67803;BME280;72185;51.378;-1.342;2023-09-19T05:49:49;99288.13;;;21.35;38.42
67803;BME280;72185;51.378;-1.342;2023-09-19T05:52:15;99277.99;;;20.89;38.76
67803;BME280;72185;51.378;-1.342;2023-09-19T05:54:40;99274.40;;;21.43;38.38
67803;BME280;72185;51.378;-1.342;2023-09-19T05:57:06;99271.17;;;21.44;38.29
67803;BME280;72185;51.378;-1.342;2023-09-19T05:59:31;99267.23;;;21.47;38.42
67803;BME280;72185;51.378;-1.342;2023-09-19T06:01:57;99268.64;;;21.74;38.08
67803;BME280;72185;51.378;-1.342;2023-09-19T06:04:22;99268.98;;;21.49;38.27
67803;BME280;72185;51.378;-1.342;2023-09-19T06:06:47;99268.04;;;21.30;38.56
67803;BME280;72185;51.378;-1.342;2023-09-19T06:09:13;99275.56;;;21.46;38.33
67803;BME280;72185;51.378;-1.342;2023-09-19T06:11:38;99267.30;;;21.95;37.84
67803;BME280;72185;51.378;-1.342;2023-09-19T06:14:04;99264.41;;;21.43;38.02
67803;BME280;72185;51.378;-1.342;2023-09-19T06:16:29;99260.40;;;21.23;38.61
67803;BME280;72185;51.378;-1.342;2023-09-19T06:18:54;99251.30;;;21.51;38.26
67803;BME280;72185;51.378;-1.342;2023-09-19T06:21:20;99255.40;;;21.41;38.34
67803;BME280;72185;51.378;-1.342;2023-09-19T06:23:45;99251.16;;;21.32;38.56
67803;BME280;72185;51.378;-1.342;2023-09-19T06:26:11;99244.44;;;21.28;38.22
67803;BME280;72185;51.378;-1.342;2023-09-19T06:28:36;99247.88;;;21.20;38.67
67803;BME280;72185;51.378;-1.342;2023-09-19T06:31:02;99239.09;;;21.57;38.05
67803;BME280;72185;51.378;-1.342;2023-09-19T06:33:27;99236.48;;;21.51;38.28
67803;BME280;72185;51.378;-1.342;2023-09-19T06:35:52;99234.84;;;21.62;38.11
67803;BME280;72185;51.378;-1.342;2023-09-19T06:38:18;99238.31;;;21.27;38.53
67803;BME280;72185;51.378;-1.342;2023-09-19T06:40:43;99238.25;;;21.49;38.28
67803;BME280;72185;51.378;-1.342;2023-09-19T06:43:10;99237.03;;;21.00;38.94
67803;BME280;72185;51.378;-1.342;2023-09-19T06:45:34;99233.68;;;21.50;38.55
67803;BME280;72185;51.378;-1.342;2023-09-19T06:47:59;99230.42;;;21.38;38.41
67803;BME280;72185;51.378;-1.342;2023-09-19T06:50:25;99220.89;;;21.46;38.34
67803;BME280;72185;51.378;-1.342;2023-09-19T06:52:51;99232.97;;;21.56;38.11
67803;BME280;72185;51.378;-1.342;2023-09-19T06:55:16;99232.44;;;21.40;38.30
67803;BME280;72185;51.378;-1.342;2023-09-19T06:57:41;99225.51;;;21.56;38.08
67803;BME280;72185;51.378;-1.342;2023-09-19T07:00:08;99220.94;;;21.46;38.25
67803;BME280;72185;51.378;-1.342;2023-09-19T07:02:32;99225.65;;;21.55;38.10
67803;BME280;72185;51.378;-1.342;2023-09-19T07:04:57;99220.76;;;21.48;38.23
67803;BME280;72185;51.378;-1.342;2023-09-19T07:07:23;99217.93;;;21.12;38.29
67803;BME280;72185;51.378;-1.342;2023-09-19T07:09:48;99209.55;;;21.58;37.80
67803;BME280;72185;51.378;-1.342;2023-09-19T07:12:13;99208.84;;;21.87;37.66
67803;BME280;72185;51.378;-1.342;2023-09-19T07:14:39;99204.99;;;21.32;38.49
67803;BME280;72185;51.378;-1.342;2023-09-19T07:17:04;99216.01;;;21.59;38.07
67803;BME280;72185;51.378;-1.342;2023-09-19T07:19:30;99210.63;;;21.80;37.85
67803;BME280;72185;51.378;-1.342;2023-09-19T07:21:55;99213.90;;;21.51;38.61
67803;BME280;72185;51.378;-1.342;2023-09-19T07:24:21;99208.59;;;21.67;38.08
67803;BME280;72185;51.378;-1.342;2023-09-19T07:26:46;99216.67;;;21.87;37.72
67803;BME280;72185;51.378;-1.342;2023-09-19T07:29:12;99207.12;;;21.85;37.73
67803;BME280;72185;51.378;-1.342;2023-09-19T07:31:37;99206.10;;;21.42;38.42
67803;BME280;72185;51.378;-1.342;2023-09-19T07:34:02;99207.99;;;21.53;38.22
67803;BME280;72185;51.378;-1.342;2023-09-19T07:36:28;99198.63;;;21.71;37.62
67803;BME280;72185;51.378;-1.342;2023-09-19T07:38:58;99207.59;;;21.43;38.42
67803;BME280;72185;51.378;-1.342;2023-09-19T07:41:19;99214.46;;;22.19;37.66
67803;BME280;72185;51.378;-1.342;2023-09-19T07:43:44;99206.59;;;21.94;37.69
67803;BME280;72185;51.378;-1.342;2023-09-19T07:46:10;99217.81;;;21.97;37.62
67803;BME280;72185;51.378;-1.342;2023-09-19T07:48:35;99217.84;;;22.26;37.29
67803;BME280;72185;51.378;-1.342;2023-09-19T07:51:02;99214.30;;;21.99;37.65
67803;BME280;72185;51.378;-1.342;2023-09-19T07:53:26;99215.86;;;22.12;37.44
67803;BME280;72185;51.378;-1.342;2023-09-19T07:55:51;99218.48;;;22.28;37.34
67803;BME280;72185;51.378;-1.342;2023-09-19T07:58:17;99209.41;;;22.25;37.33
67803;BME280;72185;51.378;-1.342;2023-09-19T08:00:42;99202.96;;;22.36;37.07
67803;BME280;72185;51.378;-1.342;2023-09-19T08:03:07;99188.81;;;22.35;37.09
67803;BME280;72185;51.378;-1.342;2023-09-19T08:05:33;99199.71;;;22.35;37.17
67803;BME280;72185;51.378;-1.342;2023-09-19T08:07:58;99178.24;;;22.35;37.18
67803;BME280;72185;51.378;-1.342;2023-09-19T08:10:23;99183.26;;;22.07;37.55
67803;BME280;72185;51.378;-1.342;2023-09-19T08:12:49;99189.61;;;22.54;37.18
67803;BME280;72185;51.378;-1.342;2023-09-19T08:15:15;99204.89;;;22.21;37.41
67803;BME280;72185;51.378;-1.342;2023-09-19T08:17:40;99201.01;;;22.11;37.51
67803;BME280;72185;51.378;-1.342;2023-09-19T08:20:06;99199.11;;;22.09;37.56
67803;BME280;72185;51.378;-1.342;2023-09-19T08:22:31;99203.11;;;22.29;37.34
67803;BME280;72185;51.378;-1.342;2023-09-19T08:24:56;99204.77;;;22.36;37.13
67803;BME280;72185;51.378;-1.342;2023-09-19T08:27:21;99201.91;;;22.12;37.46
67803;BME280;72185;51.378;-1.342;2023-09-19T08:29:47;99205.97;;;22.37;37.21
67803;BME280;72185;51.378;-1.342;2023-09-19T08:32:12;99202.55;;;22.34;37.18
67803;BME280;72185;51.378;-1.342;2023-09-19T08:34:38;99197.74;;;22.59;37.23
67803;BME280;72185;51.378;-1.342;2023-09-19T08:37:03;99199.00;;;22.17;37.47
67803;BME280;72185;51.378;-1.342;2023-09-19T08:39:29;99203.04;;;22.18;37.47
67803;BME280;72185;51.378;-1.342;2023-09-19T08:41:57;99209.10;;;22.21;37.11
67803;BME280;72185;51.378;-1.342;2023-09-19T08:44:19;99207.67;;;22.03;37.33
67803;BME280;72185;51.378;-1.342;2023-09-19T08:46:45;99199.38;;;22.37;37.24
67803;BME280;72185;51.378;-1.342;2023-09-19T08:49:16;99181.78;;;22.38;37.18
67803;BME280;72185;51.378;-1.342;2023-09-19T08:51:41;99182.60;;;22.34;37.26
67803;BME280;72185;51.378;-1.342;2023-09-19T08:54:06;99192.96;;;22.33;37.31
67803;BME280;72185;51.378;-1.342;2023-09-19T08:56:29;99194.80;;;22.40;37.12
67803;BME280;72185;51.378;-1.342;2023-09-19T08:58:57;99203.26;;;22.42;37.09
67803;BME280;72185;51.378;-1.342;2023-09-19T09:01:17;99189.52;;;22.25;37.41
67803;BME280;72185;51.378;-1.342;2023-09-19T09:03:43;99196.19;;;22.02;37.39
67803;BME280;72185;51.378;-1.342;2023-09-19T09:06:08;99189.71;;;22.33;37.29
67803;BME280;72185;51.378;-1.342;2023-09-19T09:08:34;99195.42;;;22.30;37.26
67803;BME280;72185;51.378;-1.342;2023-09-19T09:11:04;99196.45;;;22.37;36.85
67803;BME280;72185;51.378;-1.342;2023-09-19T09:13:25;99199.11;;;22.56;36.87
67803;BME280;72185;51.378;-1.342;2023-09-19T09:15:50;99199.66;;;22.38;37.15
67803;BME280;72185;51.378;-1.342;2023-09-19T09:18:15;99199.36;;;22.47;37.03
67803;BME280;72185;51.378;-1.342;2023-09-19T09:20:41;99203.99;;;22.45;37.04
67803;BME280;72185;51.378;-1.342;2023-09-19T09:23:06;99203.82;;;22.33;37.25
67803;BME280;72185;51.378;-1.342;2023-09-19T09:28:01;99200.94;;;22.45;37.06
67803;BME280;72185;51.378;-1.342;2023-09-19T09:35:13;99206.74;;;22.60;36.83
67803;BME280;72185;51.378;-1.342;2023-09-19T09:37:39;99194.70;;;22.50;36.99
67803;BME280;72185;51.378;-1.342;2023-09-19T09:40:05;99190.47;;;22.45;37.09
67803;BME280;72185;51.378;-1.342;2023-09-19T09:42:32;99198.98;;;22.25;37.37
67803;BME280;72185;51.378;-1.342;2023-09-19T09:49:48;99200.32;;;22.45;37.11
67803;BME280;72185;51.378;-1.342;2023-09-19T09:52:11;99190.86;;;22.38;37.18
67803;BME280;72185;51.378;-1.342;2023-09-19T09:54:37;99207.95;;;22.52;36.99
67803;BME280;72185;51.378;-1.342;2023-09-19T09:57:04;99208.53;;;22.36;37.22
67803;BME280;72185;51.378;-1.342;2023-09-19T10:01:53;99203.40;;;22.20;37.16
67803;BME280;72185;51.378;-1.342;2023-09-19T10:04:27;99205.84;;;22.40;37.15
67803;BME280;72185;51.378;-1.342;2023-09-19T10:06:44;99206.68;;;22.35;37.30
67803;BME280;72185;51.378;-1.342;2023-09-19T10:09:09;99214.62;;;22.63;37.24
67803;BME280;72185;51.378;-1.342;2023-09-19T10:11:35;99214.59;;;22.40;37.27
67803;BME280;72185;51.378;-1.342;2023-09-19T10:14:01;99212.32;;;22.49;37.11
67803;BME280;72185;51.378;-1.342;2023-09-19T10:16:26;99218.58;;;22.45;37.20
67803;BME280;72185;51.378;-1.342;2023-09-19T10:18:53;99211.65;;;22.42;37.24
67803;BME280;72185;51.378;-1.342;2023-09-19T10:21:16;99214.43;;;22.49;37.11
67803;BME280;72185;51.378;-1.342;2023-09-19T10:23:42;99209.19;;;22.35;37.32
67803;BME280;72185;51.378;-1.342;2023-09-19T10:26:07;99213.83;;;22.50;37.10
67803;BME280;72185;51.378;-1.342;2023-09-19T10:28:34;99206.47;;;22.47;37.16
67803;BME280;72185;51.378;-1.342;2023-09-19T10:31:00;99203.82;;;22.26;37.44
67803;BME280;72185;51.378;-1.342;2023-09-19T10:33:24;99199.32;;;22.40;37.29
67803;BME280;72185;51.378;-1.342;2023-09-19T10:35:50;99200.84;;;22.42;37.28
67803;BME280;72185;51.378;-1.342;2023-09-19T10:38:18;99199.53;;;22.44;37.24
67803;BME280;72185;51.378;-1.342;2023-09-19T10:40:40;99208.67;;;22.27;37.48
67803;BME280;72185;51.378;-1.342;2023-09-19T10:43:05;99201.67;;;22.24;37.24
67803;BME280;72185;51.378;-1.342;2023-09-19T10:45:32;99202.94;;;22.38;37.30
67803;BME280;72185;51.378;-1.342;2023-09-19T10:47:56;99199.47;;;22.53;37.16
67803;BME280;72185;51.378;-1.342;2023-09-19T10:50:22;99200.22;;;22.61;37.05
67803;BME280;72185;51.378;-1.342;2023-09-19T10:52:48;99202.12;;;22.51;37.50
67803;BME280;72185;51.378;-1.342;2023-09-19T10:55:17;99200.03;;;22.31;37.47
67803;BME280;72185;51.378;-1.342;2023-09-19T10:57:38;99189.52;;;22.63;37.36
67803;BME280;72185;51.378;-1.342;2023-09-19T11:00:05;99199.96;;;22.32;37.48
67803;BME280;72185;51.378;-1.342;2023-09-19T11:02:29;99208.49;;;22.33;37.18
67803;BME280;72185;51.378;-1.342;2023-09-19T11:04:54;99193.66;;;22.32;37.18
67803;BME280;72185;51.378;-1.342;2023-09-19T11:07:20;99203.70;;;22.55;37.21
67803;BME280;72185;51.378;-1.342;2023-09-19T11:09:47;99195.30;;;22.58;37.19
67803;BME280;72185;51.378;-1.342;2023-09-19T11:12:11;99193.75;;;22.43;37.38
67803;BME280;72185;51.378;-1.342;2023-09-19T11:14:39;99200.08;;;22.53;37.25
67803;BME280;72185;51.378;-1.342;2023-09-19T11:21:53;99195.70;;;22.83;37.22
67803;BME280;72185;51.378;-1.342;2023-09-19T11:26:44;99186.65;;;22.70;37.07
67803;BME280;72185;51.378;-1.342;2023-09-19T11:31:42;99179.75;;;22.61;37.18
67803;BME280;72185;51.378;-1.342;2023-09-19T11:36:34;99186.30;;;22.72;37.09
67803;BME280;72185;51.378;-1.342;2023-09-19T11:38:58;99179.97;;;22.83;36.96
67803;BME280;72185;51.378;-1.342;2023-09-19T11:46:07;99167.60;;;22.67;37.05
67803;BME280;72185;51.378;-1.342;2023-09-19T11:48:32;99173.54;;;22.98;36.84
67803;BME280;72185;51.378;-1.342;2023-09-19T11:50:57;99167.64;;;22.75;37.15
67803;BME280;72185;51.378;-1.342;2023-09-19T11:53:23;99163.83;;;22.65;37.36
67803;BME280;72185;51.378;-1.342;2023-09-19T11:55:48;99164.72;;;22.51;37.57
67803;BME280;72185;51.378;-1.342;2023-09-19T11:58:15;99164.94;;;22.48;37.65
67803;BME280;72185;51.378;-1.342;2023-09-19T12:00:39;99159.71;;;22.61;37.52
67803;BME280;72185;51.378;-1.342;2023-09-19T12:03:08;99157.98;;;22.57;37.52
67803;BME280;72185;51.378;-1.342;2023-09-19T12:05:30;99150.63;;;22.66;37.44
67803;BME280;72185;51.378;-1.342;2023-09-19T12:07:55;99151.90;;;22.51;37.61
67803;BME280;72185;51.378;-1.342;2023-09-19T12:10:21;99159.22;;;22.64;37.50
67803;BME280;72185;51.378;-1.342;2023-09-19T12:12:47;99157.79;;;22.48;37.71
67803;BME280;72185;51.378;-1.342;2023-09-19T12:15:12;99150.53;;;22.24;37.75
67803;BME280;72185;51.378;-1.342;2023-09-19T12:17:37;99156.70;;;22.61;37.61
67803;BME280;72185;51.378;-1.342;2023-09-19T12:20:03;99155.99;;;22.63;37.57
67803;BME280;72185;51.378;-1.342;2023-09-19T12:24:53;99156.67;;;22.56;37.65
67803;BME280;72185;51.378;-1.342;2023-09-19T12:27:19;99158.55;;;22.54;37.71
67803;BME280;72185;51.378;-1.342;2023-09-19T12:29:45;99165.61;;;22.51;37.74
67803;BME280;72185;51.378;-1.342;2023-09-19T12:32:10;99163.75;;;22.51;37.74
67803;BME280;72185;51.378;-1.342;2023-09-19T12:34:35;99159.55;;;22.66;37.60
67803;BME280;72185;51.378;-1.342;2023-09-19T12:37:05;99158.65;;;22.63;37.66
67803;BME280;72185;51.378;-1.342;2023-09-19T12:39:26;99164.98;;;22.58;37.69
67803;BME280;72185;51.378;-1.342;2023-09-19T12:41:52;99160.19;;;22.56;37.80
67803;BME280;72185;51.378;-1.342;2023-09-19T12:44:17;99158.83;;;22.77;37.83
67803;BME280;72185;51.378;-1.342;2023-09-19T12:46:42;99158.91;;;22.53;37.82
67803;BME280;72185;51.378;-1.342;2023-09-19T12:49:16;99152.57;;;22.72;37.62
67803;BME280;72185;51.378;-1.342;2023-09-19T12:51:35;99152.33;;;22.57;37.83
67803;BME280;72185;51.378;-1.342;2023-09-19T12:53:58;99147.51;;;22.52;37.63
67803;BME280;72185;51.378;-1.342;2023-09-19T12:56:24;99140.32;;;22.61;37.78
67803;BME280;72185;51.378;-1.342;2023-09-19T12:58:51;99148.15;;;22.75;37.96
67803;BME280;72185;51.378;-1.342;2023-09-19T13:01:15;99154.40;;;22.67;37.76
67803;BME280;72185;51.378;-1.342;2023-09-19T13:03:40;99147.68;;;22.69;37.74
67803;BME280;72185;51.378;-1.342;2023-09-19T13:06:05;99155.95;;;22.32;37.89
67803;BME280;72185;51.378;-1.342;2023-09-19T13:08:34;99152.06;;;22.60;37.82
67803;BME280;72185;51.378;-1.342;2023-09-19T13:11:02;99154.87;;;22.62;37.78
67803;BME280;72185;51.378;-1.342;2023-09-19T13:13:23;99157.59;;;22.66;37.75
67803;BME280;72185;51.378;-1.342;2023-09-19T13:15:52;99157.68;;;22.70;37.71
67803;BME280;72185;51.378;-1.342;2023-09-19T13:18:13;99153.67;;;22.78;37.92